Time;durP1;ratioP1;P1;durP2;ratioP2;P2;SDS_P1;SDS_P2;PMS_P1;PMS_P2;Temp;Humidity;BMP_temperature;BMP_pressure;BME280_temperature;BME280_humidity;BME280_pressure;Samples;Min_cycle;Max_cycle;Signal;HPM_P1;HPM_P2
2022/05/04 00:01:40;;;;;;;8.93;7.90;;;15.40;99.90;;;;;;5007146;28;20197;-75
2022/05/04 00:04:06;;;;;;;9.37;8.07;;;15.40;99.90;;;;;;5010558;28;20204;-75
2022/05/04 00:06:32;;;;;;;11.17;8.60;;;15.10;99.90;;;;;;5007260;28;20254;-75
2022/05/04 00:08:57;;;;;;;9.57;8.67;;;15.20;99.90;;;;;;5003561;28;20483;-75
2022/05/04 00:11:23;;;;;;;10.43;8.53;;;15.00;99.90;;;;;;5000714;28;20442;-76
2022/05/04 00:13:49;;;;;;;8.13;7.37;;;15.10;99.90;;;;;;5008725;28;20254;-75
2022/05/04 00:16:15;;;;;;;8.70;7.70;;;15.50;99.90;;;;;;5007404;28;20182;-74
2022/05/04 00:18:41;;;;;;;9.40;8.50;;;15.70;99.90;;;;;;5008512;28;20459;-74
2022/05/04 00:21:07;;;;;;;9.60;8.70;;;15.70;99.90;;;;;;5006104;28;21025;-76
2022/05/04 00:23:33;;;;;;;9.97;8.97;;;15.80;99.90;;;;;;5011665;28;20597;-74
2022/05/04 00:25:59;;;;;;;8.60;7.80;;;15.60;99.90;;;;;;5013186;28;20468;-76
2022/05/04 00:28:25;;;;;;;8.47;7.60;;;15.10;99.90;;;;;;5026789;28;20550;-78
2022/05/04 00:30:50;;;;;;;10.03;8.30;;;15.30;99.90;;;;;;5007748;28;20467;-76
2022/05/04 00:33:16;;;;;;;10.87;9.77;;;15.40;99.90;;;;;;5013631;28;20227;-74
2022/05/04 00:35:41;;;;;;;9.30;8.30;;;15.40;99.90;;;;;;5014619;28;20187;-75
2022/05/04 00:38:07;;;;;;;18.43;10.30;;;15.40;99.90;;;;;;5011822;28;20181;-76
2022/05/04 00:40:33;;;;;;;12.77;8.80;;;15.60;99.90;;;;;;5010548;28;20180;-74
2022/05/04 00:42:58;;;;;;;9.07;8.17;;;15.50;99.90;;;;;;5011487;28;20204;-75
2022/05/04 00:45:24;;;;;;;10.43;9.43;;;15.50;99.90;;;;;;5007303;28;20664;-75
2022/05/04 00:47:50;;;;;;;10.43;8.70;;;15.30;99.90;;;;;;5012581;28;20179;-75
2022/05/04 00:50:16;;;;;;;9.83;8.93;;;14.90;99.90;;;;;;5007238;28;20664;-73
2022/05/04 00:52:43;;;;;;;10.37;9.30;;;14.70;99.90;;;;;;5007694;28;20243;-75
2022/05/04 00:55:10;;;;;;;9.90;8.90;;;14.80;99.90;;;;;;5009266;28;20502;-75
2022/05/04 01:00:22;;;;;;;11.67;9.00;;;14.80;99.90;;;;;;5006787;28;20453;-75
2022/05/04 01:02:48;;;;;;;9.60;8.70;;;15.00;99.90;;;;;;5010944;28;20541;-75
2022/05/04 01:05:14;;;;;;;9.73;8.73;;;15.00;99.90;;;;;;5011399;28;21360;-74
2022/05/04 01:07:41;;;;;;;9.53;8.53;;;15.20;99.90;;;;;;5009140;28;20187;-75
2022/05/04 01:10:08;;;;;;;9.13;8.23;;;15.30;99.90;;;;;;5022724;28;20591;-74
2022/05/04 01:12:35;;;;;;;14.07;8.40;;;15.20;99.90;;;;;;5010489;28;21081;-75
2022/05/04 01:15:02;;;;;;;9.67;8.77;;;15.40;99.90;;;;;;5011297;28;20490;-76
2022/05/04 01:17:28;;;;;;;8.80;7.97;;;15.40;99.90;;;;;;5012034;28;20481;-74
2022/05/04 01:19:56;;;;;;;9.57;8.50;;;14.90;99.90;;;;;;5009047;28;20435;-76
2022/05/04 01:22:23;;;;;;;9.40;8.40;;;14.60;99.90;;;;;;5006901;28;20227;-75
2022/05/04 01:24:49;;;;;;;9.70;7.93;;;14.60;99.90;;;;;;5005451;28;20443;-76
2022/05/04 01:27:15;;;;;;;13.10;8.60;;;14.60;99.90;;;;;;5006016;28;20442;-76
2022/05/04 01:29:40;;;;;;;8.00;7.20;;;14.80;99.90;;;;;;5008836;28;20218;-73
2022/05/04 01:32:07;;;;;;;9.07;8.17;;;15.20;99.90;;;;;;5010330;28;20195;-75
2022/05/04 01:34:32;;;;;;;8.40;7.60;;;15.10;99.90;;;;;;5006590;28;20794;-74
2022/05/04 01:36:58;;;;;;;10.00;8.00;;;15.10;99.90;;;;;;5008495;28;20484;-75
2022/05/04 01:39:23;;;;;;;8.53;7.70;;;15.40;99.90;;;;;;5004278;28;20184;-75
2022/05/04 01:42:05;;;;;;;8.23;7.43;;;15.50;99.90;;;;;;5007430;28;20189;-74
2022/05/04 01:44:34;;;;;;;10.23;7.90;;;15.50;99.90;;;;;;5008223;28;20226;-76
2022/05/04 01:47:00;;;;;;;9.40;7.97;;;14.80;99.90;;;;;;5009137;28;20439;-75
2022/05/04 01:49:27;;;;;;;8.77;7.87;;;14.90;99.90;;;;;;5029954;28;20473;-75
2022/05/04 01:51:52;;;;;;;10.00;8.10;;;14.30;99.90;;;;;;5009627;28;20619;-75
2022/05/04 01:54:18;;;;;;;8.43;7.63;;;14.10;99.90;;;;;;5014294;28;20451;-77
2022/05/04 01:56:44;;;;;;;7.47;6.57;;;14.50;99.90;;;;;;5013045;28;20247;-75
2022/05/04 01:59:10;;;;;;;8.07;7.27;;;14.60;99.90;;;;;;5011756;28;20910;-74
2022/05/04 02:01:39;;;;;;;7.63;6.93;;;14.90;99.90;;;;;;5013934;28;20195;-76
2022/05/04 02:04:05;;;;;;;8.53;7.73;;;14.90;99.90;;;;;;5012527;28;20212;-74
2022/05/04 02:06:32;;;;;;;8.63;7.00;;;15.10;99.90;;;;;;5016887;28;20443;-74
2022/05/04 02:08:58;;;;;;;8.53;7.50;;;15.30;99.90;;;;;;5010844;28;20494;-75
2022/05/04 02:11:24;;;;;;;10.80;6.80;;;15.20;99.90;;;;;;5014334;28;20442;-75
2022/05/04 02:13:51;;;;;;;8.60;7.80;;;15.20;99.90;;;;;;5012190;28;20541;-73
2022/05/04 02:16:17;;;;;;;8.93;7.63;;;14.70;99.90;;;;;;5011343;28;20552;-76
2022/05/04 02:18:43;;;;;;;8.63;7.70;;;14.30;99.90;;;;;;5009437;28;21523;-74
2022/05/04 02:21:11;;;;;;;8.20;7.40;;;14.30;99.90;;;;;;5008512;28;20200;-76
2022/05/04 02:23:37;;;;;;;8.43;7.63;;;14.10;99.90;;;;;;5015951;28;20462;-73
2022/05/04 02:26:03;;;;;;;7.80;7.10;;;14.20;99.90;;;;;;5015846;28;20449;-77
2022/05/04 02:28:29;;;;;;;12.83;8.53;;;14.10;99.90;;;;;;5012442;28;20229;-74
2022/05/04 02:30:54;;;;;;;9.30;8.17;;;14.20;99.90;;;;;;5011466;28;20443;-74
2022/05/04 02:33:20;;;;;;;8.30;7.50;;;14.10;99.90;;;;;;5009426;28;20922;-75
2022/05/04 02:38:30;;;;;;;8.80;7.90;;;14.60;99.90;;;;;;5008708;28;20203;-76
2022/05/04 02:40:57;;;;;;;8.47;7.67;;;14.20;99.90;;;;;;5009209;28;21402;-75
2022/05/04 02:43:22;;;;;;;9.43;7.50;;;14.30;99.90;;;;;;5011524;28;20764;-76
2022/05/04 02:45:48;;;;;;;12.37;8.20;;;14.20;99.90;;;;;;5006369;28;20440;-75
2022/05/04 02:48:13;;;;;;;13.60;7.83;;;14.40;99.90;;;;;;5010458;28;20193;-74
2022/05/04 02:50:39;;;;;;;9.70;8.70;;;14.50;99.90;;;;;;5007799;28;20247;-75
2022/05/04 02:53:05;;;;;;;8.30;7.50;;;14.60;99.90;;;;;;5009457;28;20228;-74
2022/05/04 02:55:31;;;;;;;8.37;7.13;;;14.70;99.90;;;;;;5030238;28;20267;-74
2022/05/04 02:57:57;;;;;;;8.40;7.60;;;14.40;99.90;;;;;;5009925;28;20442;-74
2022/05/04 03:00:24;;;;;;;7.90;7.10;;;14.50;99.90;;;;;;5011200;28;20451;-76
2022/05/04 03:02:50;;;;;;;9.40;7.33;;;14.70;99.90;;;;;;5013561;28;20741;-73
2022/05/04 03:05:17;;;;;;;10.13;7.40;;;14.70;99.90;;;;;;5014507;28;20489;-75
2022/05/04 03:07:43;;;;;;;8.37;7.57;;;14.80;99.90;;;;;;5010741;28;20431;-74
2022/05/04 03:10:10;;;;;;;8.80;8.00;;;14.60;99.90;;;;;;5013959;28;20470;-75
2022/05/04 03:12:35;;;;;;;7.73;7.03;;;14.30;99.90;;;;;;5030384;28;20506;-74
2022/05/04 03:15:04;;;;;;;8.23;7.43;;;14.70;99.90;;;;;;5029639;28;20847;-76
2022/05/04 03:17:30;;;;;;;6.77;6.17;;;14.80;99.90;;;;;;5014727;28;20279;-74
2022/05/04 03:19:56;;;;;;;7.27;6.57;;;14.90;99.90;;;;;;5010850;28;20530;-75
2022/05/04 03:22:21;;;;;;;7.83;7.00;;;15.10;99.90;;;;;;5014997;28;20658;-75
2022/05/04 03:24:47;;;;;;;8.07;7.37;;;14.70;99.90;;;;;;5013192;28;20439;-76
2022/05/04 03:27:13;;;;;;;8.10;7.00;;;14.10;99.90;;;;;;5016398;28;20335;-74
2022/05/04 03:29:38;;;;;;;8.77;7.90;;;13.60;99.90;;;;;;5008998;28;20213;-76
2022/05/04 03:32:05;;;;;;;8.13;7.43;;;13.50;99.90;;;;;;5011897;28;20184;-73
2022/05/04 03:34:30;;;;;;;8.30;7.50;;;13.40;99.90;;;;;;5015837;28;20180;-75
2022/05/04 03:36:58;;;;;;;8.53;7.60;;;13.30;99.90;;;;;;5012355;28;20497;-76
2022/05/04 03:39:25;;;;;;;9.13;8.13;;;13.10;99.90;;;;;;5006176;28;20502;-76
2022/05/04 03:41:51;;;;;;;9.50;7.73;;;13.10;99.90;;;;;;5009392;28;20448;-76
2022/05/04 03:44:16;;;;;;;8.37;7.53;;;13.30;99.90;;;;;;5013889;28;21012;-75
2022/05/04 03:46:46;;;;;;;10.17;7.80;;;13.50;99.90;;;;;;5014157;28;20189;-76
2022/05/04 03:49:13;;;;;;;9.70;7.73;;;13.40;99.90;;;;;;5009829;28;20356;-76
2022/05/04 03:51:39;;;;;;;9.63;8.73;;;13.30;99.90;;;;;;5027241;28;20435;-75
2022/05/04 03:54:05;;;;;;;10.97;8.07;;;13.20;99.90;;;;;;5006087;28;20456;-76
2022/05/04 03:56:31;;;;;;;9.27;8.23;;;13.00;99.90;;;;;;5015980;28;20491;-74
2022/05/04 03:58:56;;;;;;;10.80;8.30;;;12.90;99.90;;;;;;5011976;28;20231;-76
2022/05/04 04:01:22;;;;;;;13.93;9.23;;;12.80;99.90;;;;;;5008629;28;20201;-75
2022/05/04 04:03:48;;;;;;;9.07;8.10;;;13.00;99.90;;;;;;5008342;28;20208;-75
2022/05/04 04:06:13;;;;;;;9.60;8.53;;;13.10;99.90;;;;;;5009089;28;20184;-74
2022/05/04 04:08:42;;;;;;;9.00;8.00;;;13.20;99.90;;;;;;5008171;28;20205;-76
2022/05/04 04:11:08;;;;;;;7.63;6.90;;;13.10;99.90;;;;;;5004322;28;20181;-74
2022/05/04 04:13:34;;;;;;;14.90;8.83;;;13.10;99.90;;;;;;5011752;28;20452;-75
2022/05/04 04:16:00;;;;;;;9.80;8.70;;;13.30;99.90;;;;;;5009562;28;20265;-74
2022/05/04 04:18:26;;;;;;;8.47;7.70;;;13.40;99.90;;;;;;5012433;28;21056;-76
2022/05/04 04:23:37;;;;;;;9.07;8.17;;;13.20;99.90;;;;;;5010638;28;20478;-76
2022/05/04 04:26:05;;;;;;;9.27;8.33;;;13.00;99.90;;;;;;5012474;28;20443;-73
2022/05/04 04:28:31;;;;;;;8.90;7.63;;;13.10;99.90;;;;;;5007143;28;20208;-74
2022/05/04 04:30:57;;;;;;;8.23;7.43;;;13.10;99.90;;;;;;5028145;28;20438;-73
2022/05/04 04:33:26;;;;;;;9.67;8.77;;;12.90;99.90;;;;;;5026164;28;21226;-77
2022/05/04 04:35:52;;;;;;;9.00;7.90;;;12.70;99.90;;;;;;5013597;28;20262;-74
2022/05/04 04:38:18;;;;;;;8.47;7.63;;;12.80;99.90;;;;;;5015358;28;21147;-77
2022/05/04 04:40:45;;;;;;;9.00;7.90;;;13.10;99.90;;;;;;5009215;28;20443;-77
2022/05/04 04:43:11;;;;;;;12.43;9.13;;;12.90;99.90;;;;;;5012726;28;20216;-77
2022/05/04 04:45:36;;;;;;;8.90;7.37;;;12.90;99.90;;;;;;5013123;28;20489;-76
2022/05/04 04:48:02;;;;;;;10.90;9.03;;;13.00;99.90;;;;;;5010714;28;20439;-75
2022/05/04 04:50:28;;;;;;;9.10;8.30;;;12.90;99.90;;;;;;5012623;28;20188;-74
2022/05/04 04:52:53;;;;;;;8.67;7.87;;;12.80;99.90;;;;;;5012933;28;20614;-74
2022/05/04 04:55:19;;;;;;;11.07;9.53;;;12.90;99.90;;;;;;5013093;28;20192;-74
2022/05/04 04:57:45;;;;;;;9.13;8.23;;;12.80;99.90;;;;;;5012097;28;20200;-76
2022/05/04 05:00:11;;;;;;;8.83;7.93;;;13.10;99.90;;;;;;5013953;28;20208;-76
2022/05/04 05:02:37;;;;;;;10.30;9.40;;;12.80;99.90;;;;;;5011839;28;20471;-75
2022/05/04 05:05:03;;;;;;;9.40;8.40;;;12.80;99.90;;;;;;5008434;28;20982;-74
2022/05/04 05:07:29;;;;;;;16.90;9.50;;;12.80;99.90;;;;;;5011898;28;20192;-73
2022/05/04 05:09:56;;;;;;;9.00;8.10;;;12.80;99.90;;;;;;5010753;28;20463;-73
2022/05/04 05:12:21;;;;;;;8.97;8.10;;;12.90;99.90;;;;;;5014084;28;20855;-74
2022/05/04 05:17:32;;;;;;;8.57;7.73;;;13.10;99.90;;;;;;5014187;28;20941;-73
2022/05/04 05:19:58;;;;;;;8.20;7.40;;;13.30;99.90;;;;;;5008068;28;20827;-74
2022/05/04 05:22:24;;;;;;;11.20;8.03;;;13.10;99.90;;;;;;5009650;28;20464;-76
2022/05/04 05:24:49;;;;;;;8.63;7.83;;;13.30;99.90;;;;;;5005942;28;20183;-76
2022/05/04 05:27:15;;;;;;;8.53;7.40;;;13.30;99.90;;;;;;5011747;28;20307;-75
2022/05/04 05:29:41;;;;;;;8.63;7.60;;;13.50;99.90;;;;;;5013900;28;20220;-75
2022/05/04 05:32:07;;;;;;;9.40;7.50;;;13.40;99.90;;;;;;5008160;28;20242;-78
2022/05/04 05:34:34;;;;;;;9.87;8.87;;;13.00;99.90;;;;;;5011235;28;20440;-76
2022/05/04 05:37:00;;;;;;;9.47;8.47;;;13.00;99.90;;;;;;5009137;28;20439;-74
2022/05/04 05:39:26;;;;;;;8.17;7.43;;;13.30;99.90;;;;;;5008210;28;20530;-76
2022/05/04 05:41:52;;;;;;;10.90;7.97;;;13.30;99.90;;;;;;5007449;28;20460;-75
2022/05/04 05:44:18;;;;;;;8.53;7.67;;;13.30;99.90;;;;;;5011005;28;20212;-75
2022/05/04 05:46:44;;;;;;;7.80;7.00;;;13.60;99.90;;;;;;5010838;28;20272;-78
2022/05/04 05:49:09;;;;;;;8.20;7.37;;;13.80;99.90;;;;;;5013835;28;20231;-76
2022/05/04 05:51:35;;;;;;;7.73;6.93;;;13.60;99.90;;;;;;5010177;28;20234;-75
2022/05/04 05:54:01;;;;;;;10.20;6.87;;;13.70;99.90;;;;;;5012090;28;20212;-75
2022/05/04 05:56:26;;;;;;;8.43;7.63;;;13.90;99.90;;;;;;5009565;28;20180;-75
2022/05/04 05:58:52;;;;;;;9.70;8.17;;;13.80;99.90;;;;;;5010730;28;20271;-76
2022/05/04 06:01:17;;;;;;;10.70;7.40;;;13.70;99.90;;;;;;5010190;28;20714;-74
2022/05/04 06:03:43;;;;;;;8.63;7.80;;;13.90;99.90;;;;;;5009598;28;20243;-73
2022/05/04 06:06:09;;;;;;;8.47;7.60;;;14.20;99.90;;;;;;5009308;28;20189;-74
2022/05/04 06:08:34;;;;;;;7.57;6.80;;;14.10;99.90;;;;;;5011448;28;20627;-75
2022/05/04 06:11:00;;;;;;;8.83;7.93;;;14.20;99.90;;;;;;5009741;28;20593;-75
2022/05/04 06:13:26;;;;;;;9.17;8.27;;;14.10;99.90;;;;;;5015507;28;20540;-75
2022/05/04 06:15:51;;;;;;;9.73;7.80;;;14.40;99.90;;;;;;5018845;28;20306;-74
2022/05/04 06:18:17;;;;;;;10.10;7.40;;;14.30;99.90;;;;;;5018321;28;20188;-75
2022/05/04 06:20:43;;;;;;;8.67;7.80;;;14.20;99.90;;;;;;5015901;28;20180;-74
2022/05/04 06:23:09;;;;;;;10.20;7.40;;;14.20;99.90;;;;;;5033119;28;20208;-74
2022/05/04 06:25:35;;;;;;;8.63;7.60;;;14.10;99.90;;;;;;5016208;28;20428;-74
2022/05/04 06:28:01;;;;;;;9.87;8.40;;;14.20;99.90;;;;;;5016962;28;20207;-75
2022/05/04 06:35:55;;;;;;;8.60;7.80;;;14.50;99.90;;;;;;5015648;28;20434;-74
2022/05/04 06:38:21;;;;;;;8.30;7.60;;;14.70;99.90;;;;;;5018098;28;20829;-74
2022/05/04 06:40:47;;;;;;;10.87;8.83;;;14.80;99.90;;;;;;5012958;28;20177;-76
2022/05/04 06:43:12;;;;;;;10.60;8.80;;;15.10;99.90;;;;;;5016325;28;20317;-74
2022/05/04 06:45:38;;;;;;;14.97;13.27;;;15.20;99.90;;;;;;5033369;28;20181;-75
2022/05/04 06:48:04;;;;;;;11.50;10.33;;;14.90;99.90;;;;;;5016570;28;20543;-75
2022/05/04 06:50:30;;;;;;;18.10;15.53;;;14.90;99.90;;;;;;5019214;28;20194;-74
2022/05/04 06:52:56;;;;;;;19.63;11.00;;;15.20;99.90;;;;;;5013957;28;20471;-76
2022/05/04 06:55:22;;;;;;;11.67;10.47;;;15.20;99.90;;;;;;5013427;28;20629;-76
2022/05/04 06:57:47;;;;;;;13.20;11.00;;;15.40;99.90;;;;;;5011808;28;20185;-75
2022/05/04 07:00:13;;;;;;;14.40;10.30;;;15.70;99.90;;;;;;5010696;28;20219;-74
2022/05/04 07:02:40;;;;;;;11.40;10.27;;;15.90;99.90;;;;;;5027382;28;20296;-74
2022/05/04 07:05:06;;;;;;;14.87;11.23;;;16.00;99.90;;;;;;5026290;28;20439;-74
2022/05/04 07:07:41;;;;;;;12.50;11.20;;;16.00;99.90;;;;;;5011431;28;20458;-75
2022/05/04 07:10:08;;;;;;;10.57;9.47;;;16.00;99.90;;;;;;5025454;28;20506;-75
2022/05/04 07:12:33;;;;;;;11.57;10.07;;;16.20;99.90;;;;;;5009976;28;24519;-73
2022/05/04 07:14:59;;;;;;;10.60;9.20;;;16.20;99.90;;;;;;5012834;28;20435;-75
2022/05/04 07:17:26;;;;;;;12.23;10.90;;;16.40;99.90;;;;;;5014127;28;20235;-74
2022/05/04 07:19:52;;;;;;;11.53;10.40;;;16.40;99.90;;;;;;5015851;28;20194;-75
2022/05/04 07:22:18;;;;;;;13.63;10.93;;;16.50;99.90;;;;;;5031836;28;20463;-74
2022/05/04 07:24:44;;;;;;;11.30;10.20;;;16.60;99.90;;;;;;5015964;28;20489;-75
2022/05/04 07:27:11;;;;;;;11.57;10.40;;;16.70;99.90;;;;;;5014309;28;20447;-76
2022/05/04 07:29:36;;;;;;;11.37;10.27;;;16.70;99.90;;;;;;5013467;28;20204;-76
2022/05/04 07:32:03;;;;;;;12.70;10.63;;;16.70;99.90;;;;;;5013487;28;20864;-76
2022/05/04 07:34:29;;;;;;;12.67;11.27;;;16.70;99.90;;;;;;5015153;28;20744;-76
2022/05/04 07:36:58;;;;;;;12.80;11.47;;;16.70;99.90;;;;;;5012562;28;20432;-75
2022/05/04 07:42:26;;;;;;;12.77;10.30;;;16.60;99.90;;;;;;5014067;28;20607;-76
2022/05/04 07:45:00;;;;;;;12.77;11.47;;;16.90;99.90;;;;;;5011219;28;20436;-77
2022/05/04 07:47:27;;;;;;;13.57;10.90;;;17.00;99.90;;;;;;5032275;28;21438;-75
2022/05/04 07:49:53;;;;;;;11.40;10.33;;;16.90;99.90;;;;;;5013916;28;20455;-75
2022/05/04 07:52:19;;;;;;;12.13;10.87;;;17.10;99.90;;;;;;5014010;28;21433;-75
2022/05/04 07:54:44;;;;;;;13.73;12.33;;;17.10;99.90;;;;;;5015388;28;20485;-75
2022/05/04 07:57:10;;;;;;;14.13;12.63;;;17.10;99.90;;;;;;5012816;28;20180;-76
2022/05/04 07:59:36;;;;;;;13.00;11.37;;;16.90;99.90;;;;;;5031891;28;20663;-76
2022/05/04 08:04:47;;;;;;;14.27;11.60;;;16.80;99.90;;;;;;5015662;28;20918;-74
2022/05/04 08:07:13;;;;;;;14.20;12.80;;;16.90;99.90;;;;;;5008124;28;20534;-72
2022/05/04 08:09:40;;;;;;;13.60;12.40;;;17.00;99.90;;;;;;5012012;28;21106;-73
2022/05/04 08:12:08;;;;;;;14.07;11.47;;;16.80;99.90;;;;;;5015976;28;20531;-73
2022/05/04 08:14:35;;;;;;;13.50;11.40;;;17.10;99.90;;;;;;5015354;28;20211;-73
2022/05/04 08:17:01;;;;;;;14.90;13.37;;;17.40;99.90;;;;;;5024645;28;20432;-72
2022/05/04 08:19:27;;;;;;;16.40;12.73;;;17.40;99.90;;;;;;5012189;28;20537;-73
2022/05/04 08:21:52;;;;;;;18.70;14.20;;;17.50;99.90;;;;;;5013498;28;20895;-73
2022/05/04 08:24:18;;;;;;;19.00;15.93;;;17.60;99.90;;;;;;5014284;28;20220;-74
2022/05/04 08:26:44;;;;;;;15.70;13.83;;;17.70;99.90;;;;;;5010024;28;20267;-74
2022/05/04 08:29:10;;;;;;;21.63;14.63;;;17.80;99.90;;;;;;5008432;28;20687;-73
2022/05/04 08:31:36;;;;;;;14.87;13.27;;;17.80;99.90;;;;;;5011300;28;20185;-72
2022/05/04 08:34:02;;;;;;;19.30;13.37;;;17.90;99.90;;;;;;5017705;28;20457;-74
2022/05/04 08:36:28;;;;;;;14.13;12.80;;;18.10;99.90;;;;;;5013711;28;20501;-73
2022/05/04 08:38:53;;;;;;;14.47;13.10;;;18.20;99.90;;;;;;5013293;28;20189;-75
2022/05/04 08:41:22;;;;;;;14.77;12.83;;;18.30;99.90;;;;;;5008473;28;20188;-74
2022/05/04 08:43:50;;;;;;;13.83;12.63;;;18.20;99.90;;;;;;5029256;28;20742;-73
2022/05/04 08:46:18;;;;;;;14.60;13.20;;;18.20;99.90;;;;;;5011647;28;20506;-74
2022/05/04 08:48:44;;;;;;;17.50;12.40;;;17.90;99.90;;;;;;5010714;28;24889;-74
2022/05/04 08:51:10;;;;;;;15.27;13.77;;;17.70;99.90;;;;;;5011574;28;20428;-74
2022/05/04 08:53:38;;;;;;;14.03;12.73;;;17.60;99.90;;;;;;5009900;28;20506;-73
2022/05/04 08:56:05;;;;;;;15.37;13.10;;;17.60;99.90;;;;;;5011622;28;20967;-74
2022/05/04 08:58:34;;;;;;;14.60;12.90;;;17.70;99.90;;;;;;5013189;28;20442;-73
2022/05/04 09:00:59;;;;;;;16.13;13.73;;;17.80;99.90;;;;;;5007582;28;20455;-73
2022/05/04 09:03:25;;;;;;;14.87;12.90;;;17.60;99.90;;;;;;5016580;28;20517;-75
2022/05/04 09:05:54;;;;;;;15.30;13.80;;;17.90;99.90;;;;;;5008177;28;20200;-73
2022/05/04 09:08:20;;;;;;;17.17;13.60;;;17.80;99.90;;;;;;5008439;28;20827;-73
2022/05/04 09:10:45;;;;;;;15.17;13.37;;;17.90;99.90;;;;;;5009064;28;20481;-74
2022/05/04 09:13:11;;;;;;;16.50;14.90;;;17.90;99.90;;;;;;5013968;28;20204;-73
2022/05/04 09:15:42;;;;;;;15.30;13.70;;;18.10;99.90;;;;;;5027217;28;20188;-74
2022/05/04 09:18:16;;;;;;;15.33;13.43;;;18.00;99.90;;;;;;5009371;28;20432;-75
2022/05/04 09:20:49;;;;;;;15.93;13.90;;;18.00;99.90;;;;;;5007491;28;20481;-74
2022/05/04 09:23:19;;;;;;;17.60;15.73;;;18.40;99.90;;;;;;5005862;28;20476;-74
2022/05/04 09:25:58;;;;;;;15.13;13.60;;;18.50;99.90;;;;;;5014467;28;20443;-73
2022/05/04 09:28:24;;;;;;;17.77;15.70;;;18.40;99.90;;;;;;5011807;28;20451;-74
2022/05/04 09:30:58;;;;;;;14.00;12.70;;;18.20;99.90;;;;;;5012432;28;20435;-73
2022/05/04 09:33:29;;;;;;;15.47;13.83;;;18.20;99.90;;;;;;5014092;28;20555;-74
2022/05/04 09:35:56;;;;;;;21.90;15.67;;;17.90;99.90;;;;;;5016653;28;20427;-73
2022/05/04 09:46:47;;;;;;;16.00;13.10;;;18.00;99.90;;;;;;5014814;28;20445;-73
2022/05/04 09:49:15;;;;;;;14.73;13.23;;;17.90;99.90;;;;;;5010756;28;20471;-75
2022/05/04 09:51:45;;;;;;;15.20;13.60;;;17.80;99.90;;;;;;5008564;28;20439;-75
2022/05/04 09:54:27;;;;;;;18.57;15.63;;;17.60;99.90;;;;;;5010604;28;20458;-73
2022/05/04 09:56:53;;;;;;;17.70;14.83;;;17.50;99.90;;;;;;5006942;28;20998;-73
2022/05/04 09:59:24;;;;;;;18.70;15.30;;;17.40;99.90;;;;;;5003310;28;20447;-76
2022/05/04 10:01:51;;;;;;;16.77;15.07;;;17.40;99.90;;;;;;5025465;28;20200;-75
2022/05/04 10:04:17;;;;;;;15.90;14.07;;;17.60;99.90;;;;;;5009953;28;20496;-75
2022/05/04 10:06:44;;;;;;;23.10;16.20;;;17.80;99.90;;;;;;5010827;28;20447;-75
2022/05/04 10:09:10;;;;;;;19.53;15.03;;;17.90;99.90;;;;;;5006448;28;20495;-74
2022/05/04 10:11:37;;;;;;;17.00;15.30;;;17.70;99.90;;;;;;5010805;28;20463;-73
2022/05/04 10:14:05;;;;;;;20.37;15.67;;;17.90;99.90;;;;;;5016137;28;20840;-74
2022/05/04 10:16:43;;;;;;;16.83;14.33;;;18.00;99.90;;;;;;5013726;28;20443;-74
2022/05/04 10:19:19;;;;;;;19.83;14.97;;;18.30;99.90;;;;;;5016531;28;20854;-72
2022/05/04 10:21:49;;;;;;;16.37;14.67;;;18.50;99.90;;;;;;5013976;28;20489;-72
2022/05/04 10:24:17;;;;;;;19.00;15.57;;;18.60;99.90;;;;;;5018560;28;20446;-72
2022/05/04 10:26:45;;;;;;;17.77;15.90;;;18.70;99.90;;;;;;5012849;28;20558;-73
2022/05/04 10:32:38;;;;;;;16.33;14.70;;;18.70;99.90;;;;;;5020678;28;20426;-74
2022/05/04 10:35:20;;;;;;;17.63;15.43;;;18.70;99.90;;;;;;5018036;28;20994;-75
2022/05/04 10:37:57;;;;;;;16.80;15.10;;;18.60;99.90;;;;;;5016662;28;20435;-73
2022/05/04 10:40:27;;;;;;;16.00;14.50;;;18.90;99.90;;;;;;5019511;28;20439;-72
2022/05/04 10:42:56;;;;;;;20.87;17.80;;;19.00;99.90;;;;;;5015207;28;20454;-73
2022/05/04 10:45:28;;;;;;;16.67;14.60;;;19.10;99.90;;;;;;5014653;28;20428;-72
2022/05/04 10:48:12;;;;;;;17.00;15.00;;;19.20;99.90;;;;;;5011581;28;20868;-72
2022/05/04 10:51:02;;;;;;;16.63;13.63;;;19.40;99.90;;;;;;5009429;28;20502;-72
2022/05/04 10:53:29;;;;;;;16.73;14.33;;;19.40;99.90;;;;;;5030210;28;20473;-74
2022/05/04 10:55:55;;;;;;;19.63;14.40;;;19.30;99.90;;;;;;5008305;28;21136;-74
2022/05/04 10:58:44;;;;;;;16.00;14.40;;;19.20;99.90;;;;;;5014443;28;20521;-72
2022/05/04 11:01:20;;;;;;;15.97;14.30;;;19.30;99.90;;;;;;5010874;28;20500;-73
2022/05/04 11:04:04;;;;;;;14.83;13.40;;;19.20;99.90;;;;;;5013046;28;20435;-72
2022/05/04 11:06:49;;;;;;;15.20;13.60;;;19.10;99.90;;;;;;5013176;28;20439;-73
2022/05/04 11:09:17;;;;;;;15.80;14.17;;;19.00;99.90;;;;;;5012573;28;20527;-72
2022/05/04 11:11:48;;;;;;;14.67;13.10;;;19.10;99.90;;;;;;5012818;28;20478;-73
2022/05/04 11:14:15;;;;;;;14.50;13.10;;;19.30;99.90;;;;;;5013034;28;20454;-74
2022/05/04 11:16:43;;;;;;;14.13;12.00;;;19.50;99.90;;;;;;5015842;28;20435;-74
2022/05/04 11:19:11;;;;;;;13.10;10.73;;;19.50;99.90;;;;;;5016505;28;20446;-72
2022/05/04 11:21:37;;;;;;;16.73;12.50;;;19.60;99.90;;;;;;5014116;28;20898;-75
2022/05/04 11:24:06;;;;;;;13.27;11.60;;;19.70;99.90;;;;;;5014258;28;20447;-73
2022/05/04 11:26:41;;;;;;;16.07;11.30;;;19.80;99.90;;;;;;5016513;28;20481;-74
2022/05/04 11:29:13;;;;;;;11.73;9.53;;;19.80;99.90;;;;;;5006711;28;20986;-74
2022/05/04 11:31:47;;;;;;;13.13;11.83;;;20.00;99.90;;;;;;5009991;28;21042;-75
2022/05/04 11:34:17;;;;;;;11.40;10.30;;;20.00;99.90;;;;;;5018463;28;20517;-75
2022/05/04 11:36:48;;;;;;;10.90;9.80;;;20.10;99.90;;;;;;5033177;28;21439;-73
2022/05/04 11:39:16;;;;;;;10.77;8.63;;;20.10;99.90;;;;;;5012446;28;20504;-75
2022/05/04 11:41:45;;;;;;;10.67;9.63;;;20.30;99.90;;;;;;5012152;28;20574;-72
2022/05/04 11:44:12;;;;;;;13.67;9.03;;;20.40;99.90;;;;;;5012358;28;20436;-72
2022/05/04 11:46:38;;;;;;;10.83;9.80;;;20.50;99.90;;;;;;5015979;28;21050;-74
2022/05/04 11:49:10;;;;;;;10.27;9.30;;;20.60;99.90;;;;;;5018015;28;20491;-72
2022/05/04 11:51:36;;;;;;;9.80;8.80;;;20.80;99.90;;;;;;5012625;28;20431;-73
2022/05/04 11:54:03;;;;;;;9.50;8.67;;;20.80;99.90;;;;;;5012965;28;20830;-75
2022/05/04 11:56:29;;;;;;;9.37;8.00;;;20.90;99.90;;;;;;5017546;28;20436;-75
2022/05/04 11:58:54;;;;;;;8.27;7.20;;;21.20;99.90;;;;;;5012258;28;20501;-75
2022/05/04 12:01:20;;;;;;;8.47;7.63;;;21.40;99.90;;;;;;5015952;28;20223;-72
2022/05/04 12:03:46;;;;;;;10.77;8.10;;;21.60;99.90;;;;;;5008587;28;20284;-76
2022/05/04 12:06:13;;;;;;;7.47;6.77;;;22.00;99.90;;;;;;5013513;28;20188;-72
2022/05/04 12:08:40;;;;;;;9.20;7.20;;;22.30;99.90;;;;;;5013756;28;20476;-72
2022/05/04 12:11:07;;;;;;;8.67;7.83;;;22.70;99.90;;;;;;5012045;28;20523;-73
2022/05/04 12:13:42;;;;;;;8.83;7.00;;;22.60;99.90;;;;;;5016865;28;21018;-73
2022/05/04 12:16:11;;;;;;;7.67;6.97;;;22.70;99.90;;;;;;5009088;28;20510;-73
2022/05/04 12:18:39;;;;;;;7.80;7.20;;;22.70;99.90;;;;;;5011874;28;20431;-72
2022/05/04 12:21:08;;;;;;;8.27;6.43;;;22.60;99.90;;;;;;5006799;28;20943;-74
2022/05/04 12:23:35;;;;;;;7.43;6.73;;;22.60;99.90;;;;;;5010162;28;20443;-72
2022/05/04 12:26:01;;;;;;;8.70;7.90;;;22.90;99.90;;;;;;5011495;28;20427;-77
2022/05/04 12:28:27;;;;;;;7.97;7.27;;;22.70;99.90;;;;;;5011560;28;20461;-75
2022/05/04 12:33:38;;;;;;;7.77;7.07;;;22.60;99.90;;;;;;5012086;28;20454;-74
2022/05/04 12:36:07;;;;;;;7.63;7.00;;;22.70;99.90;;;;;;5028795;28;20424;-74
2022/05/04 12:38:35;;;;;;;7.57;6.90;;;23.00;99.90;;;;;;5010406;28;20187;-76
2022/05/04 12:41:02;;;;;;;7.90;7.20;;;23.30;99.90;;;;;;5012405;28;20550;-75
2022/05/04 12:43:33;;;;;;;8.70;7.67;;;23.10;99.90;;;;;;5014010;28;20464;-74
2022/05/04 12:45:59;;;;;;;7.83;7.10;;;23.20;99.90;;;;;;5012871;28;20493;-76
2022/05/04 12:48:26;;;;;;;8.07;7.27;;;23.50;99.90;;;;;;5015242;28;20428;-75
2022/05/04 12:50:56;;;;;;;7.80;7.00;;;23.80;99.90;;;;;;5025434;28;20475;-76
2022/05/04 12:53:26;;;;;;;7.77;7.07;;;23.90;99.90;;;;;;5013179;28;20509;-75
2022/05/04 12:58:36;;;;;;;8.90;8.10;;;24.10;99.90;;;;;;5017608;28;20423;-80
2022/05/04 13:01:04;;;;;;;7.67;7.07;;;24.20;99.90;;;;;;5014850;28;20534;-75
2022/05/04 13:03:33;;;;;;;8.00;7.30;;;24.10;99.90;;;;;;5012091;28;20196;-87
2022/05/04 13:05:58;;;;;;;7.73;7.07;;;24.10;99.90;;;;;;5012657;28;20486;-75
2022/05/04 13:08:24;;;;;;;8.40;7.53;;;23.80;99.90;;;;;;5029719;28;20432;-74
2022/05/04 13:10:50;;;;;;;9.77;8.00;;;23.70;99.80;;;;;;5012874;28;20255;-74
2022/05/04 13:13:20;;;;;;;7.63;6.57;;;23.90;97.90;;;;;;5009993;28;20208;-75
2022/05/04 13:15:47;;;;;;;9.77;7.70;;;24.00;97.60;;;;;;5008671;28;20216;-76
2022/05/04 13:18:13;;;;;;;7.57;6.93;;;24.00;97.60;;;;;;5015399;28;20820;-73